createdAt,value
2022-09-11T00:01:00.169Z,1.00
2022-09-11T00:03:28.129Z,1.05
2022-09-11T00:05:55.841Z,1.20
2022-09-11T00:08:23.479Z,1.00
2022-09-11T00:10:51.076Z,1.30
2022-09-11T00:13:21.121Z,1.30
2022-09-11T00:15:49.785Z,1.00
2022-09-11T00:18:21.700Z,1.10
2022-09-11T00:20:50.741Z,1.10
2022-09-11T00:23:18.741Z,1.00
2022-09-11T00:25:47.252Z,1.02
2022-09-11T00:28:16.529Z,1.00
2022-09-11T00:30:44.882Z,1.25
2022-09-11T00:33:12.933Z,0.80
2022-09-11T00:35:42.116Z,0.90
2022-09-11T00:38:13.079Z,0.95
2022-09-11T00:40:46.233Z,1.10
2022-09-11T00:43:14.834Z,1.33
2022-09-11T00:45:42.400Z,0.80
2022-09-11T00:48:10.233Z,0.93
2022-09-11T00:50:37.811Z,1.20
2022-09-11T00:53:09.901Z,1.10
2022-09-11T00:55:38.396Z,0.80
2022-09-11T00:58:08.282Z,1.17
2022-09-11T01:00:39.364Z,1.00
2022-09-11T01:03:07.062Z,0.70
2022-09-11T01:05:36.419Z,0.98
2022-09-11T01:08:04.156Z,1.00
2022-09-11T01:10:45.614Z,1.00
2022-09-11T01:13:18.144Z,1.10
2022-09-11T01:15:50.038Z,1.00
2022-09-11T01:21:12.447Z,1.13
2022-09-11T01:23:47.099Z,1.05
2022-09-11T01:26:25.119Z,1.10
2022-09-11T01:28:59.778Z,1.05
2022-09-11T01:31:30.748Z,1.23
2022-09-11T01:34:00.526Z,1.05
2022-09-11T01:36:29.785Z,1.02
2022-09-11T01:38:58.941Z,1.20
2022-09-11T01:41:30.489Z,1.20
2022-09-11T01:44:03.676Z,1.10
2022-09-11T01:46:35.398Z,1.17
2022-09-11T01:49:04.775Z,1.20
2022-09-11T01:51:34.444Z,1.27
2022-09-11T01:54:05.198Z,1.23
2022-09-11T01:56:36.188Z,1.52
2022-09-11T01:59:07.266Z,1.30
2022-09-11T02:01:37.913Z,1.10
2022-09-11T02:04:10.515Z,1.20
2022-09-11T02:06:41.845Z,1.00
2022-09-11T02:09:11.943Z,1.20
2022-09-11T02:11:42.664Z,1.15
2022-09-11T02:14:16.064Z,1.42
2022-09-11T02:16:46.061Z,1.00
2022-09-11T02:19:15.549Z,1.10
2022-09-11T02:21:43.248Z,1.00
2022-09-11T02:24:11.719Z,1.10
2022-09-11T02:26:41.507Z,1.10
2022-09-11T02:29:10.282Z,1.52
2022-09-11T02:31:39.837Z,1.10
2022-09-11T02:34:07.450Z,1.25
2022-09-11T02:36:46.093Z,1.38
2022-09-11T02:39:25.372Z,1.00
2022-09-11T02:42:03.249Z,1.10
2022-09-11T02:44:37.733Z,1.20
2022-09-11T02:47:12.139Z,1.00
2022-09-11T02:49:46.158Z,1.45
2022-09-11T02:52:21.572Z,1.20
2022-09-11T02:54:54.110Z,1.10
2022-09-11T02:57:26.540Z,1.15
2022-09-11T02:59:56.798Z,1.17
2022-09-11T03:02:27.054Z,1.13
2022-09-11T03:04:56.830Z,1.00
2022-09-11T03:07:25.573Z,1.20
2022-09-11T03:09:53.606Z,1.17
2022-09-11T03:12:23.694Z,1.27
2022-09-11T03:14:51.801Z,1.30
2022-09-11T03:17:20.136Z,1.10
2022-09-11T03:19:49.966Z,1.40
2022-09-11T03:22:18.881Z,1.10
2022-09-11T03:24:48.267Z,1.20
2022-09-11T03:27:17.352Z,1.20
2022-09-11T03:29:46.398Z,1.20
2022-09-11T03:32:16.062Z,1.20
2022-09-11T03:34:43.874Z,1.23
2022-09-11T03:37:12.848Z,1.13
2022-09-11T03:39:41.353Z,1.17
2022-09-11T03:42:12.169Z,1.02
2022-09-11T03:44:41.196Z,1.02
2022-09-11T03:47:12.004Z,1.00
2022-09-11T03:49:39.763Z,1.20
2022-09-11T03:52:08.260Z,1.08
2022-09-11T03:54:38.019Z,1.15
2022-09-11T03:57:06.683Z,1.10
2022-09-11T03:59:34.654Z,1.20
2022-09-11T04:02:03.164Z,1.20
2022-09-11T04:04:31.210Z,1.10
2022-09-11T04:06:59.009Z,1.13
2022-09-11T04:09:28.561Z,1.20
2022-09-11T04:11:57.423Z,1.20
2022-09-11T04:14:28.024Z,1.25
2022-09-11T04:16:59.293Z,1.00
2022-09-11T04:19:29.542Z,1.20
2022-09-11T04:21:57.586Z,1.48
2022-09-11T04:24:25.282Z,1.00
2022-09-11T04:26:55.307Z,1.20
2022-09-11T04:29:29.746Z,0.90
2022-09-11T04:31:57.900Z,1.15
2022-09-11T04:34:29.372Z,1.00
2022-09-11T04:36:57.368Z,1.10
2022-09-11T04:39:26.186Z,1.00
2022-09-11T04:41:54.429Z,1.90
2022-09-11T04:44:22.041Z,1.13
2022-09-11T04:46:51.277Z,1.17
2022-09-11T04:49:20.264Z,1.40
2022-09-11T04:51:48.703Z,1.40
2022-09-11T04:54:21.317Z,1.08
2022-09-11T04:56:49.593Z,1.27
2022-09-11T04:59:19.491Z,1.17
2022-09-11T05:01:54.435Z,1.30
2022-09-11T05:04:26.204Z,1.38
2022-09-11T05:06:55.441Z,1.08
2022-09-11T05:09:23.439Z,1.23
2022-09-11T05:11:51.659Z,1.00
2022-09-11T05:14:19.414Z,1.10
2022-09-11T05:17:06.845Z,1.30
2022-09-11T05:19:38.873Z,1.02
2022-09-11T05:22:08.165Z,1.10
2022-09-11T05:24:38.518Z,1.20
2022-09-11T05:27:08.103Z,1.13
2022-09-11T05:29:35.707Z,1.10
2022-09-11T05:32:10.655Z,0.95
2022-09-11T05:34:38.398Z,1.10
2022-09-11T05:37:09.435Z,0.90
2022-09-11T05:39:42.318Z,1.00
2022-09-11T05:44:57.049Z,1.25
2022-09-11T05:47:28.521Z,1.08
2022-09-11T05:49:57.628Z,1.10
2022-09-11T05:52:25.993Z,1.20
2022-09-11T05:54:54.098Z,1.35
2022-09-11T05:57:21.745Z,1.05
2022-09-11T05:59:49.491Z,1.10
2022-09-11T06:02:20.022Z,1.10
2022-09-11T06:04:53.771Z,1.00
2022-09-11T06:07:24.211Z,1.00
2022-09-11T06:09:53.453Z,1.05
2022-09-11T06:12:21.638Z,1.30
2022-09-11T06:14:50.726Z,1.15
2022-09-11T06:17:18.703Z,1.17
2022-09-11T06:19:47.168Z,1.10
2022-09-11T06:22:17.636Z,1.10
2022-09-11T06:24:46.998Z,1.05
2022-09-11T06:27:17.007Z,1.10
2022-09-11T06:29:46.290Z,0.98
2022-09-11T06:32:13.920Z,1.00
2022-09-11T06:34:42.162Z,1.05
2022-09-11T06:37:12.989Z,0.80
2022-09-11T06:39:42.785Z,0.90
2022-09-11T06:42:15.929Z,0.90
2022-09-11T06:44:46.576Z,1.13
2022-09-11T06:47:16.699Z,0.90
2022-09-11T06:49:44.273Z,1.10
2022-09-11T06:52:22.231Z,0.88
2022-09-11T06:55:04.422Z,1.00
2022-09-11T06:57:32.338Z,1.00
2022-09-11T06:59:59.952Z,0.90
2022-09-11T07:02:28.395Z,1.10
2022-09-11T07:04:56.082Z,0.70
2022-09-11T07:07:27.081Z,0.90
2022-09-11T07:09:54.876Z,0.80
2022-09-11T07:12:27.075Z,1.10
2022-09-11T07:14:56.362Z,0.95
2022-09-11T07:17:24.256Z,1.00
2022-09-11T07:19:53.658Z,0.88
2022-09-11T07:22:22.026Z,0.70
2022-09-11T07:24:50.575Z,1.17
2022-09-11T07:27:19.443Z,1.08
2022-09-11T07:29:49.483Z,0.90
2022-09-11T07:32:17.431Z,0.80
2022-09-11T07:34:45.333Z,0.85
2022-09-11T07:37:13.885Z,0.90
2022-09-11T07:39:41.791Z,0.88
2022-09-11T07:42:17.121Z,1.00
2022-09-11T07:44:46.215Z,0.90
2022-09-11T07:47:16.641Z,0.80
2022-09-11T07:49:48.123Z,0.93
2022-09-11T07:52:16.969Z,0.80
2022-09-11T07:54:51.136Z,0.70
2022-09-11T07:57:21.926Z,0.80
2022-09-11T07:59:51.563Z,0.77
2022-09-11T08:02:22.443Z,0.80
2022-09-11T08:04:51.607Z,1.17
2022-09-11T08:07:22.704Z,0.70
2022-09-11T08:10:10.239Z,0.93
2022-09-11T08:12:38.193Z,0.90
2022-09-11T08:15:05.987Z,0.95
2022-09-11T08:17:34.979Z,0.70
2022-09-11T08:20:04.061Z,0.63
2022-09-11T08:22:33.491Z,0.50
2022-09-11T08:25:01.259Z,0.80
2022-09-11T08:27:29.294Z,0.65
2022-09-11T08:29:56.932Z,0.73
2022-09-11T08:32:24.769Z,0.60
2022-09-11T08:34:53.649Z,0.60
2022-09-11T08:37:22.257Z,0.77
2022-09-11T08:39:50.095Z,0.65
2022-09-11T08:42:18.098Z,0.70
2022-09-11T08:44:48.784Z,0.60
2022-09-11T08:47:32.538Z,0.90
2022-09-11T08:50:04.639Z,0.70
2022-09-11T08:52:34.023Z,0.60
2022-09-11T08:55:03.363Z,0.68
2022-09-11T08:57:37.709Z,0.80
2022-09-11T09:00:09.855Z,0.60
2022-09-11T09:02:56.886Z,0.50
2022-09-11T09:05:29.002Z,0.60
2022-09-11T09:08:04.704Z,0.55
2022-09-11T09:10:38.409Z,0.50
2022-09-11T09:13:14.029Z,0.50
2022-09-11T09:15:45.855Z,0.60
2022-09-11T09:18:16.772Z,0.60
2022-09-11T09:20:47.678Z,0.50
2022-09-11T09:23:20.287Z,0.50
2022-09-11T09:25:52.583Z,0.50
2022-09-11T09:28:21.839Z,0.52
2022-09-11T09:30:52.014Z,0.52
2022-09-11T09:33:25.523Z,0.50
2022-09-11T09:35:55.544Z,0.50
2022-09-11T09:38:28.104Z,0.60
2022-09-11T09:41:10.797Z,0.68
2022-09-11T09:43:41.331Z,0.70
2022-09-11T09:46:15.240Z,0.60
2022-09-11T09:48:43.489Z,0.55
2022-09-11T09:51:15.885Z,0.70
2022-09-11T09:53:46.645Z,0.60
2022-09-11T09:56:17.080Z,0.60
2022-09-11T09:58:50.039Z,0.73
2022-09-11T10:01:27.562Z,0.68
2022-09-11T10:04:10.831Z,0.60
2022-09-11T10:06:40.024Z,0.60
2022-09-11T10:09:08.489Z,0.70
2022-09-11T10:11:36.098Z,0.50
2022-09-11T10:14:03.730Z,0.60
2022-09-11T10:16:41.036Z,0.40
2022-09-11T10:19:29.163Z,0.70
2022-09-11T10:22:14.977Z,0.50
2022-09-11T10:24:43.550Z,0.50
2022-09-11T10:27:13.243Z,0.60
2022-09-11T10:29:50.115Z,0.60
2022-09-11T10:32:18.949Z,0.50
2022-09-11T10:34:47.992Z,0.55
2022-09-11T10:37:23.460Z,0.70
2022-09-11T10:39:51.393Z,0.40
2022-09-11T10:42:22.197Z,0.50
2022-09-11T10:44:51.023Z,0.55
2022-09-11T10:47:22.799Z,0.60
2022-09-11T10:49:50.924Z,0.57
2022-09-11T10:52:22.177Z,0.40
2022-09-11T10:54:58.576Z,0.60
2022-09-11T10:57:28.875Z,0.40
2022-09-11T10:59:59.271Z,0.40
2022-09-11T11:02:30.577Z,0.60
2022-09-11T11:04:59.080Z,0.50
2022-09-11T11:07:37.757Z,0.55
2022-09-11T11:10:11.962Z,0.40
2022-09-11T11:12:47.534Z,0.47
2022-09-11T11:15:26.936Z,0.50
2022-09-11T11:18:03.850Z,0.73
2022-09-11T11:20:35.156Z,0.60
2022-09-11T11:23:16.362Z,0.60
2022-09-11T11:25:48.588Z,0.40
2022-09-11T11:28:22.779Z,0.60
2022-09-11T11:30:55.069Z,0.50
2022-09-11T11:33:33.390Z,0.50
2022-09-11T11:36:03.306Z,0.63
2022-09-11T11:38:37.262Z,0.60
2022-09-11T11:41:07.779Z,0.50
2022-09-11T11:43:39.339Z,0.60
2022-09-11T11:46:13.162Z,0.40
2022-09-11T11:48:45.751Z,0.38
2022-09-11T11:51:16.479Z,0.50
2022-09-11T11:53:49.330Z,0.30
2022-09-11T11:56:24.069Z,0.45
2022-09-11T11:58:54.184Z,0.57
2022-09-11T12:01:23.245Z,0.55
2022-09-11T12:03:53.977Z,0.55
2022-09-11T12:06:22.463Z,0.50
2022-09-11T12:08:51.796Z,0.35
2022-09-11T12:11:25.670Z,0.40
2022-09-11T12:13:54.898Z,0.60
2022-09-11T12:16:28.180Z,0.70
2022-09-11T12:19:05.801Z,0.50
2022-09-11T12:21:38.722Z,0.50
2022-09-11T12:24:17.534Z,0.70
2022-09-11T12:26:45.638Z,0.50
2022-09-11T12:29:24.369Z,0.50
2022-09-11T12:32:03.469Z,0.40
2022-09-11T12:34:53.277Z,0.47
2022-09-11T12:37:27.714Z,0.43
2022-09-11T12:40:01.225Z,0.45
2022-09-11T12:42:38.129Z,0.40
2022-09-11T12:45:06.012Z,0.40
2022-09-11T12:47:34.998Z,0.45
2022-09-11T12:50:07.388Z,0.50
2022-09-11T12:52:40.148Z,0.43
2022-09-11T12:55:24.074Z,0.43
2022-09-11T12:57:52.402Z,0.40
2022-09-11T13:00:23.439Z,0.50
2022-09-11T13:02:53.681Z,0.30
2022-09-11T13:05:24.936Z,0.50
2022-09-11T13:07:55.035Z,0.30
2022-09-11T13:10:30.491Z,0.30
2022-09-11T13:13:02.421Z,0.40
2022-09-11T13:15:39.166Z,0.40
2022-09-11T13:18:18.407Z,0.40
2022-09-11T13:20:56.532Z,0.47
2022-09-11T13:23:25.091Z,0.45
2022-09-11T13:25:54.977Z,0.30
2022-09-11T13:28:27.103Z,0.30
2022-09-11T13:30:57.626Z,0.52
2022-09-11T13:33:29.803Z,0.50
2022-09-11T13:35:59.059Z,0.40
2022-09-11T13:38:28.590Z,0.40
2022-09-11T13:40:58.838Z,0.30
2022-09-11T13:43:29.779Z,0.32
2022-09-11T13:46:07.832Z,0.60
2022-09-11T13:48:36.893Z,0.38
2022-09-11T13:51:06.247Z,0.32
2022-09-11T13:53:34.369Z,0.60
2022-09-11T13:56:03.709Z,0.47
2022-09-11T13:58:35.726Z,0.40
2022-09-11T14:01:11.431Z,0.43
2022-09-11T14:03:40.749Z,0.32
2022-09-11T14:06:10.704Z,0.38
2022-09-11T14:08:40.260Z,0.30
2022-09-11T14:11:11.749Z,0.38
2022-09-11T14:13:44.263Z,0.43
2022-09-11T14:16:19.053Z,0.43
2022-09-11T14:18:48.353Z,0.40
2022-09-11T14:21:16.876Z,0.32
2022-09-11T14:23:48.953Z,0.30
2022-09-11T14:26:19.041Z,0.40
2022-09-11T14:29:03.463Z,0.50
2022-09-11T14:31:33.955Z,0.28
2022-09-11T14:34:11.955Z,0.35
2022-09-11T14:36:41.602Z,0.52
2022-09-11T14:39:13.084Z,0.40
2022-09-11T14:41:43.958Z,0.40
2022-09-11T14:44:13.250Z,0.50
2022-09-11T14:46:40.935Z,0.40
2022-09-11T14:49:10.439Z,0.50
2022-09-11T14:51:38.605Z,0.30
2022-09-11T14:54:06.453Z,0.50
2022-09-11T14:56:34.916Z,0.50
2022-09-11T14:59:04.012Z,0.40
2022-09-11T15:01:31.894Z,0.40
2022-09-11T15:04:00.090Z,0.45
2022-09-11T15:06:27.925Z,0.40
2022-09-11T15:08:56.242Z,0.40
2022-09-11T15:11:23.859Z,0.50
2022-09-11T15:14:11.337Z,0.45
2022-09-11T15:16:41.306Z,0.40
2022-09-11T15:19:08.926Z,0.40
2022-09-11T15:21:37.812Z,0.40
2022-09-11T15:24:06.182Z,0.38
2022-09-11T15:26:34.181Z,0.50
2022-09-11T15:29:02.106Z,0.52
2022-09-11T15:31:30.078Z,0.35
2022-09-11T15:33:59.381Z,0.50
2022-09-11T15:36:27.299Z,0.50
2022-09-11T15:38:55.400Z,0.60
2022-09-11T15:41:24.263Z,0.43
2022-09-11T15:43:52.297Z,0.43
2022-09-11T15:46:21.136Z,0.40
2022-09-11T15:48:49.718Z,0.30
2022-09-11T15:51:19.391Z,0.40
2022-09-11T15:53:48.061Z,0.47
2022-09-11T15:56:17.394Z,0.50
2022-09-11T15:58:46.268Z,0.50
2022-09-11T16:01:18.178Z,0.45
2022-09-11T16:03:45.846Z,0.57
2022-09-11T16:06:13.681Z,0.70
2022-09-11T16:08:43.431Z,0.50
2022-09-11T16:11:12.056Z,0.50
2022-09-11T16:13:40.776Z,0.52
2022-09-11T16:16:09.017Z,0.50
2022-09-11T16:18:38.218Z,0.50
2022-09-11T16:21:07.456Z,0.50
2022-09-11T16:23:35.892Z,0.70
2022-09-11T16:26:05.304Z,0.70
2022-09-11T16:28:33.919Z,0.50
2022-09-11T16:31:02.330Z,0.60
2022-09-11T16:33:31.151Z,0.77
2022-09-11T16:36:00.409Z,0.55
2022-09-11T16:38:29.003Z,0.70
2022-09-11T16:41:09.299Z,0.80
2022-09-11T16:43:38.109Z,0.85
2022-09-11T16:46:06.485Z,0.80
2022-09-11T16:48:34.335Z,0.70
2022-09-11T16:51:02.807Z,0.75
2022-09-11T16:53:33.038Z,0.77
2022-09-11T16:56:01.336Z,0.98
2022-09-11T16:58:30.418Z,1.10
2022-09-11T17:00:58.679Z,0.80
2022-09-11T17:03:26.418Z,1.00
2022-09-11T17:05:55.594Z,0.90
2022-09-11T17:08:24.086Z,1.00
2022-09-11T17:10:56.888Z,0.90
2022-09-11T17:13:24.521Z,0.82
2022-09-11T17:15:53.657Z,0.90
2022-09-11T17:18:21.546Z,0.70
2022-09-11T17:20:49.963Z,0.80
2022-09-11T17:23:19.273Z,0.80
2022-09-11T17:25:47.319Z,0.80
2022-09-11T17:28:15.121Z,0.80
2022-09-11T17:30:42.909Z,0.60
2022-09-11T17:33:11.768Z,1.00
2022-09-11T17:35:41.061Z,0.85
2022-09-11T17:38:09.557Z,1.13
2022-09-11T17:40:39.277Z,0.90
2022-09-11T17:43:07.300Z,0.70
2022-09-11T17:45:35.156Z,0.82
2022-09-11T17:48:02.966Z,0.80
2022-09-11T17:50:31.891Z,0.77
2022-09-11T17:52:59.691Z,0.80
2022-09-11T17:55:28.126Z,1.00
2022-09-11T17:57:55.971Z,0.90
2022-09-11T18:00:23.625Z,0.80
2022-09-11T18:02:52.668Z,1.00
2022-09-11T18:05:21.777Z,1.20
2022-09-11T18:07:51.074Z,0.82
2022-09-11T18:10:19.778Z,0.90
2022-09-11T18:12:48.426Z,1.10
2022-09-11T18:15:16.920Z,0.77
2022-09-11T18:17:47.816Z,1.00
2022-09-11T18:20:17.554Z,0.90
2022-09-11T18:22:45.235Z,1.10
2022-09-11T18:25:14.562Z,1.00
2022-09-11T18:27:43.055Z,1.02
2022-09-11T18:30:12.492Z,0.98
2022-09-11T18:32:40.584Z,1.08
2022-09-11T18:35:09.813Z,0.90
2022-09-11T18:37:37.629Z,1.00
2022-09-11T18:40:05.420Z,0.90
2022-09-11T18:42:34.311Z,0.80
2022-09-11T18:45:01.900Z,0.90
2022-09-11T18:47:30.533Z,1.70
2022-09-11T18:49:59.635Z,1.95
2022-09-11T18:52:29.782Z,1.83
2022-09-11T18:54:57.636Z,2.05
2022-09-11T18:57:25.790Z,1.00
2022-09-11T18:59:54.836Z,1.10
2022-09-11T19:02:22.411Z,1.02
2022-09-11T19:04:50.293Z,0.98
2022-09-11T19:07:17.884Z,0.90
2022-09-11T19:09:48.936Z,1.10
2022-09-11T19:12:17.169Z,1.00
2022-09-11T19:14:45.823Z,1.20
2022-09-11T19:17:14.728Z,1.05
2022-09-11T19:19:42.349Z,1.15
2022-09-11T19:22:12.092Z,1.13
2022-09-11T19:24:39.721Z,1.05
2022-09-11T19:27:07.312Z,1.00
2022-09-11T19:29:34.945Z,1.08
2022-09-11T19:32:02.817Z,1.20
2022-09-11T19:34:36.136Z,0.85
2022-09-11T19:37:06.298Z,0.93
2022-09-11T19:39:33.871Z,0.90
2022-09-11T19:42:03.056Z,1.00
2022-09-11T19:44:32.306Z,1.02
2022-09-11T19:47:00.204Z,1.00
2022-09-11T19:49:28.829Z,0.88
2022-09-11T19:51:58.181Z,1.10
2022-09-11T19:54:25.871Z,1.35
2022-09-11T19:56:53.704Z,1.02
2022-09-11T19:59:21.342Z,1.00
2022-09-11T20:01:50.040Z,1.00
2022-09-11T20:04:19.019Z,0.95
2022-09-11T20:09:32.421Z,0.88
2022-09-11T20:12:01.224Z,1.23
2022-09-11T20:14:29.636Z,1.20
2022-09-11T20:16:57.231Z,1.00
2022-09-11T20:19:25.034Z,1.20
2022-09-11T20:21:52.648Z,1.30
2022-09-11T20:24:21.562Z,1.20
2022-09-11T20:26:50.388Z,1.10
2022-09-11T20:29:18.250Z,1.40
2022-09-11T20:31:48.527Z,1.13
2022-09-11T20:34:17.248Z,1.10
2022-09-11T20:36:45.551Z,1.25
2022-09-11T20:39:14.162Z,1.00
2022-09-11T20:41:43.651Z,1.10
2022-09-11T20:44:12.533Z,1.00
2022-09-11T20:46:40.467Z,1.13
2022-09-11T20:49:08.119Z,1.20
2022-09-11T20:51:35.699Z,0.90
2022-09-11T20:54:03.428Z,1.30
2022-09-11T20:56:31.503Z,1.00
2022-09-11T20:59:00.886Z,1.10
2022-09-11T21:01:32.237Z,1.05
2022-09-11T21:04:00.655Z,0.90
2022-09-11T21:06:29.916Z,1.10
2022-09-11T21:08:58.436Z,0.80
2022-09-11T21:11:26.863Z,1.20
2022-09-11T21:13:54.676Z,1.13
2022-09-11T21:16:24.065Z,1.20
2022-09-11T21:18:53.839Z,0.88
2022-09-11T21:21:21.964Z,0.90
2022-09-11T21:23:50.030Z,1.10
2022-09-11T21:26:18.170Z,1.20
2022-09-11T21:28:45.784Z,3.42
2022-09-11T21:31:13.745Z,1.52
2022-09-11T21:33:43.072Z,1.00
2022-09-11T21:36:10.906Z,0.85
2022-09-11T21:38:38.664Z,0.88
2022-09-11T21:41:07.127Z,1.02
2022-09-11T21:43:34.868Z,1.00
2022-09-11T21:46:02.911Z,1.00
2022-09-11T21:48:35.471Z,1.23
2022-09-11T21:51:07.834Z,1.10
2022-09-11T21:53:35.516Z,1.05
2022-09-11T21:56:03.564Z,1.15
2022-09-11T21:58:32.053Z,1.20
2022-09-11T22:01:02.359Z,0.95
2022-09-11T22:03:30.002Z,1.83
2022-09-11T22:05:58.120Z,1.40
2022-09-11T22:08:26.999Z,1.13
2022-09-11T22:10:54.795Z,1.08
2022-09-11T22:13:22.379Z,1.33
2022-09-11T22:15:51.426Z,1.10
2022-09-11T22:18:19.911Z,1.00
2022-09-11T22:23:34.692Z,1.15
2022-09-11T22:26:03.129Z,1.10
2022-09-11T22:28:30.814Z,1.23
2022-09-11T22:30:59.656Z,1.33
2022-09-11T22:33:27.701Z,0.98
2022-09-11T22:35:55.502Z,1.23
2022-09-11T22:38:23.793Z,1.10
2022-09-11T22:40:54.566Z,1.00
2022-09-11T22:43:22.223Z,1.00
2022-09-11T22:45:50.558Z,1.17
2022-09-11T22:48:18.756Z,1.00
2022-09-11T22:50:46.604Z,1.25
2022-09-11T22:53:14.224Z,1.20
2022-09-11T22:55:43.873Z,1.10
2022-09-11T22:58:13.237Z,1.05
2022-09-11T23:00:42.119Z,1.15
2022-09-11T23:03:10.338Z,1.02
2022-09-11T23:05:48.795Z,1.05
2022-09-11T23:08:16.533Z,0.93
2022-09-11T23:10:44.773Z,1.20
2022-09-11T23:13:14.346Z,1.00
2022-09-11T23:15:41.979Z,1.15
2022-09-11T23:18:10.130Z,1.02
2022-09-11T23:20:37.709Z,1.00
2022-09-11T23:23:05.303Z,1.00
2022-09-11T23:25:36.199Z,1.10
2022-09-11T23:28:03.881Z,1.10
2022-09-11T23:30:32.705Z,1.13
2022-09-11T23:33:00.261Z,0.95
2022-09-11T23:35:28.032Z,1.02
2022-09-11T23:37:55.883Z,0.98
2022-09-11T23:40:23.489Z,0.93
2022-09-11T23:42:51.170Z,1.10
2022-09-11T23:45:18.801Z,1.05
2022-09-11T23:47:47.713Z,1.00
2022-09-11T23:50:15.311Z,1.30
2022-09-11T23:52:42.921Z,1.13
2022-09-11T23:55:11.652Z,1.10
2022-09-11T23:57:39.609Z,1.10
